Time;durP1;ratioP1;P1;durP2;ratioP2;P2;SDS_P1;SDS_P2;PMS_P1;PMS_P2;Temp;Humidity;BMP_temperature;BMP_pressure;BME280_temperature;BME280_humidity;BME280_pressure;Samples;Min_cycle;Max_cycle;Signal;HPM_P1;HPM_P2
2022/05/18 00:01:59;;;;;;;1.67;1.45;;;;;;;;;;7403501;19;20490;-78
2022/05/18 00:04:25;;;;;;;2.72;1.60;;;;;;;;;;7401816;19;20007;-79
2022/05/18 00:06:50;;;;;;;6.20;1.83;;;;;;;;;;7403730;19;20040;-80
2022/05/18 00:09:16;;;;;;;2.42;1.70;;;;;;;;;;7402894;19;20002;-80
2022/05/18 00:11:41;;;;;;;1.73;1.63;;;;;;;;;;7397976;19;20014;-79
2022/05/18 00:14:06;;;;;;;4.28;1.67;;;;;;;;;;7405155;19;20026;-79
2022/05/18 00:16:31;;;;;;;2.20;1.30;;;;;;;;;;7399846;19;20010;-79
2022/05/18 00:18:57;;;;;;;2.80;1.80;;;;;;;;;;7406749;19;20752;-77
2022/05/18 00:21:23;;;;;;;1.98;1.52;;;;;;;;;;7403332;19;20033;-78
2022/05/18 00:23:48;;;;;;;2.45;1.50;;;;;;;;;;7405770;19;20015;-80
2022/05/18 00:26:14;;;;;;;2.10;1.50;;;;;;;;;;7404564;19;20137;-80
2022/05/18 00:28:39;;;;;;;2.25;1.45;;;;;;;;;;7404092;19;20048;-80
2022/05/18 00:31:04;;;;;;;2.08;1.42;;;;;;;;;;7408651;19;20050;-80
2022/05/18 00:33:30;;;;;;;3.05;1.90;;;;;;;;;;7396979;19;20473;-79
2022/05/18 00:35:57;;;;;;;3.83;2.30;;;;;;;;;;7402266;19;20028;-79
2022/05/18 00:38:22;;;;;;;4.78;1.63;;;;;;;;;;7400369;19;20106;-79
2022/05/18 00:40:49;;;;;;;5.10;1.77;;;;;;;;;;7396290;19;20039;-78
2022/05/18 00:43:29;;;;;;;1.90;1.63;;;;;;;;;;7397485;19;20019;-79
2022/05/18 00:45:55;;;;;;;2.33;1.50;;;;;;;;;;7398821;19;20013;-78
2022/05/18 00:48:20;;;;;;;2.58;2.15;;;;;;;;;;7396457;19;20014;-81
2022/05/18 00:50:46;;;;;;;2.72;1.52;;;;;;;;;;7396559;19;20833;-80
2022/05/18 00:53:25;;;;;;;3.00;1.70;;;;;;;;;;7399975;19;20031;-82
2022/05/18 00:55:55;;;;;;;1.88;1.30;;;;;;;;;;7402309;19;20011;-80
2022/05/18 00:58:43;;;;;;;2.72;1.65;;;;;;;;;;7399951;19;20013;-80
2022/05/18 01:01:09;;;;;;;2.40;1.63;;;;;;;;;;7397468;19;20107;-80
2022/05/18 01:03:43;;;;;;;3.60;1.75;;;;;;;;;;7394650;19;20432;-80
2022/05/18 01:06:26;;;;;;;5.60;1.88;;;;;;;;;;7400735;19;20014;-80
2022/05/18 01:09:17;;;;;;;2.88;1.88;;;;;;;;;;7398964;19;20021;-79
2022/05/18 01:11:43;;;;;;;6.32;2.13;;;;;;;;;;7394894;19;20449;-80
2022/05/18 01:14:16;;;;;;;1.88;1.60;;;;;;;;;;7398689;19;20002;-79
2022/05/18 01:16:42;;;;;;;2.05;1.75;;;;;;;;;;7396375;19;20030;-79
2022/05/18 01:19:32;;;;;;;2.15;1.45;;;;;;;;;;7400297;19;20006;-79
2022/05/18 01:22:25;;;;;;;1.40;1.30;;;;;;;;;;7392698;19;20017;-80
2022/05/18 01:24:59;;;;;;;3.22;2.00;;;;;;;;;;7398233;19;20107;-79
2022/05/18 01:27:25;;;;;;;4.82;1.38;;;;;;;;;;7396139;19;20038;-79
2022/05/18 01:29:52;;;;;;;1.85;1.67;;;;;;;;;;7397231;19;20074;-79
2022/05/18 01:32:18;;;;;;;4.85;2.00;;;;;;;;;;7391344;19;21463;-80
2022/05/18 01:34:44;;;;;;;4.35;1.88;;;;;;;;;;7396056;19;20010;-79
2022/05/18 01:37:11;;;;;;;5.03;1.50;;;;;;;;;;7401146;19;20058;-80
2022/05/18 01:39:44;;;;;;;2.33;1.48;;;;;;;;;;7402475;19;20014;-80
2022/05/18 01:42:14;;;;;;;2.08;1.48;;;;;;;;;;7402772;19;20070;-78
2022/05/18 01:44:39;;;;;;;3.78;2.08;;;;;;;;;;7402649;19;20010;-80
2022/05/18 01:47:05;;;;;;;6.97;2.03;;;;;;;;;;7403584;19;20014;-79
2022/05/18 01:49:33;;;;;;;2.17;1.70;;;;;;;;;;7402290;19;20831;-80
2022/05/18 01:51:58;;;;;;;2.25;2.00;;;;;;;;;;7398338;19;20010;-79
2022/05/18 01:54:24;;;;;;;2.38;1.50;;;;;;;;;;7401653;19;20378;-80
2022/05/18 01:56:49;;;;;;;1.60;1.40;;;;;;;;;;7398351;19;20007;-79
2022/05/18 01:59:15;;;;;;;1.83;1.60;;;;;;;;;;7404028;19;20465;-79
2022/05/18 02:01:40;;;;;;;1.95;1.73;;;;;;;;;;7395082;19;20007;-79
2022/05/18 02:04:06;;;;;;;2.33;1.88;;;;;;;;;;7398879;19;20055;-79
2022/05/18 02:06:33;;;;;;;1.88;1.70;;;;;;;;;;7396150;19;20037;-79
2022/05/18 02:08:59;;;;;;;1.50;1.40;;;;;;;;;;7399413;19;20006;-80
2022/05/18 02:11:25;;;;;;;1.77;1.48;;;;;;;;;;7396344;19;20026;-79
2022/05/18 02:13:51;;;;;;;2.15;1.40;;;;;;;;;;7403295;19;20007;-79
2022/05/18 02:16:17;;;;;;;1.73;1.63;;;;;;;;;;7401752;19;20517;-79
2022/05/18 02:18:42;;;;;;;3.03;1.90;;;;;;;;;;7400308;19;20067;-78
2022/05/18 02:21:09;;;;;;;2.42;1.80;;;;;;;;;;7402137;19;20010;-80
2022/05/18 02:23:35;;;;;;;6.75;1.85;;;;;;;;;;7399202;19;20007;-79
2022/05/18 02:26:09;;;;;;;2.45;1.88;;;;;;;;;;7396993;19;20490;-79
2022/05/18 02:28:34;;;;;;;1.35;1.25;;;;;;;;;;7400749;19;20296;-79
2022/05/18 02:31:00;;;;;;;3.15;1.65;;;;;;;;;;7400905;19;20007;-79
2022/05/18 02:33:25;;;;;;;3.05;1.30;;;;;;;;;;7403179;19;20013;-79
2022/05/18 02:35:50;;;;;;;2.85;2.10;;;;;;;;;;7405136;19;20028;-79
2022/05/18 02:38:16;;;;;;;3.88;2.83;;;;;;;;;;7401385;19;20130;-79
2022/05/18 02:40:41;;;;;;;3.35;2.35;;;;;;;;;;7397341;19;20548;-80
2022/05/18 02:43:06;;;;;;;2.67;1.40;;;;;;;;;;7401308;19;20027;-80
2022/05/18 02:45:32;;;;;;;2.50;1.75;;;;;;;;;;7405168;19;20404;-80
2022/05/18 02:47:57;;;;;;;4.47;1.83;;;;;;;;;;7398366;19;20019;-79
2022/05/18 02:50:22;;;;;;;2.15;1.85;;;;;;;;;;7400954;19;20006;-80
2022/05/18 02:52:47;;;;;;;2.35;2.03;;;;;;;;;;7400151;19;20109;-80
2022/05/18 02:57:57;;;;;;;1.92;1.50;;;;;;;;;;7400313;19;20027;-79
2022/05/18 03:00:22;;;;;;;10.70;2.35;;;;;;;;;;7400354;19;20014;-79
2022/05/18 03:02:48;;;;;;;4.20;1.80;;;;;;;;;;7399591;19;20312;-79
2022/05/18 03:05:13;;;;;;;3.20;1.55;;;;;;;;;;7400575;19;20024;-77
2022/05/18 03:07:39;;;;;;;2.08;1.88;;;;;;;;;;7401312;19;20020;-79
2022/05/18 03:10:04;;;;;;;2.13;1.83;;;;;;;;;;7397568;19;20013;-79
2022/05/18 03:12:30;;;;;;;2.17;1.50;;;;;;;;;;7393293;19;20003;-80
2022/05/18 03:14:55;;;;;;;3.67;1.75;;;;;;;;;;7400616;19;20014;-80
2022/05/18 03:17:20;;;;;;;3.58;2.20;;;;;;;;;;7400844;19;20398;-79
2022/05/18 03:19:46;;;;;;;2.10;1.77;;;;;;;;;;7398635;19;20020;-79
2022/05/18 03:24:55;;;;;;;3.75;1.70;;;;;;;;;;7401104;19;20038;-80
2022/05/18 03:27:20;;;;;;;3.38;1.98;;;;;;;;;;7399508;19;20002;-79
2022/05/18 03:29:46;;;;;;;2.30;1.80;;;;;;;;;;7401412;19;20509;-80
2022/05/18 03:32:12;;;;;;;2.42;1.50;;;;;;;;;;7394279;19;20015;-80
2022/05/18 03:34:37;;;;;;;3.33;1.90;;;;;;;;;;7401349;19;20454;-79
2022/05/18 03:37:03;;;;;;;2.47;1.75;;;;;;;;;;7398923;19;20059;-79
2022/05/18 03:39:28;;;;;;;3.08;2.00;;;;;;;;;;7401120;19;20006;-80
2022/05/18 03:41:53;;;;;;;5.47;1.88;;;;;;;;;;7400209;19;20002;-79
2022/05/18 03:44:20;;;;;;;3.75;2.10;;;;;;;;;;7400148;19;20010;-79
2022/05/18 03:46:45;;;;;;;4.28;2.10;;;;;;;;;;7397101;19;20002;-78
2022/05/18 03:49:11;;;;;;;3.22;1.90;;;;;;;;;;7396677;19;20330;-81
2022/05/18 03:51:37;;;;;;;9.27;1.90;;;;;;;;;;7396346;19;20024;-78
2022/05/18 03:54:03;;;;;;;2.25;1.73;;;;;;;;;;7397439;19;20343;-79
2022/05/18 03:56:29;;;;;;;4.18;2.10;;;;;;;;;;7395128;19;19999;-79
2022/05/18 03:58:55;;;;;;;2.67;1.67;;;;;;;;;;7387683;19;20118;-79
2022/05/18 04:01:20;;;;;;;1.90;1.48;;;;;;;;;;7387243;19;20025;-79
2022/05/18 04:03:46;;;;;;;4.88;1.75;;;;;;;;;;7389336;19;20017;-79
2022/05/18 04:06:13;;;;;;;1.92;1.45;;;;;;;;;;7388896;19;20011;-79
2022/05/18 04:08:38;;;;;;;7.30;1.77;;;;;;;;;;7391456;19;20062;-79
2022/05/18 04:11:05;;;;;;;5.20;2.15;;;;;;;;;;7386851;19;20010;-77
2022/05/18 04:13:32;;;;;;;2.13;1.75;;;;;;;;;;7389348;19;20017;-78
2022/05/18 04:15:57;;;;;;;3.33;1.80;;;;;;;;;;7392155;19;20031;-77
2022/05/18 04:18:23;;;;;;;2.92;1.73;;;;;;;;;;7391706;19;20006;-77
2022/05/18 04:20:50;;;;;;;4.63;1.80;;;;;;;;;;7388156;19;20458;-76
2022/05/18 04:23:15;;;;;;;2.53;1.58;;;;;;;;;;7391866;19;20025;-75
2022/05/18 04:25:41;;;;;;;4.40;1.67;;;;;;;;;;7389210;19;19994;-76
2022/05/18 04:28:08;;;;;;;2.30;1.88;;;;;;;;;;7387906;19;20349;-75
2022/05/18 04:30:34;;;;;;;3.28;2.00;;;;;;;;;;7387965;19;20014;-76
2022/05/18 04:33:00;;;;;;;3.80;1.90;;;;;;;;;;7391000;19;20035;-75
2022/05/18 04:35:28;;;;;;;5.55;2.42;;;;;;;;;;7386533;19;20046;-78
2022/05/18 04:37:54;;;;;;;3.35;2.13;;;;;;;;;;7394593;19;20021;-78
2022/05/18 04:40:19;;;;;;;2.17;1.80;;;;;;;;;;7394225;19;20006;-79
2022/05/18 04:42:45;;;;;;;2.90;1.70;;;;;;;;;;7395276;19;20446;-79
2022/05/18 04:45:13;;;;;;;4.03;1.73;;;;;;;;;;7396349;19;20094;-78
2022/05/18 04:47:38;;;;;;;2.92;2.17;;;;;;;;;;7394818;19;20017;-78
2022/05/18 04:50:05;;;;;;;4.82;1.42;;;;;;;;;;7393609;19;20014;-78
2022/05/18 04:52:30;;;;;;;3.80;2.40;;;;;;;;;;7389258;19;20010;-77
2022/05/18 04:54:55;;;;;;;6.35;1.90;;;;;;;;;;7398861;19;20014;-78
2022/05/18 04:57:22;;;;;;;2.50;2.00;;;;;;;;;;7400938;19;20023;-77
2022/05/18 05:00:29;;;;;;;4.40;2.10;;;;;;;;;;7397005;19;20018;-78
2022/05/18 05:03:58;;;;;;;4.55;1.83;;;;;;;;;;7390493;19;20022;-78
2022/05/18 05:06:33;;;;;;;6.05;2.20;;;;;;;;;;7393251;19;20059;-78
2022/05/18 05:09:28;;;;;;;2.27;1.90;;;;;;;;;;7394524;19;20017;-78
2022/05/18 05:16:16;;;;;;;3.63;2.15;;;;;;;;;;7400935;19;20111;-78
2022/05/18 05:18:44;;;;;;;2.33;2.03;;;;;;;;;;7403040;19;20021;-77
2022/05/18 05:31:51;;;;;;;5.38;3.40;;;;;;;;;;7393643;19;20019;-76
2022/05/18 05:34:17;;;;;;;5.03;2.88;;;;;;;;;;7393434;19;19994;-77
2022/05/18 05:36:42;;;;;;;4.45;3.03;;;;;;;;;;7388413;19;20006;-77
2022/05/18 05:39:07;;;;;;;3.45;2.55;;;;;;;;;;7394970;19;20010;-76
2022/05/18 05:41:33;;;;;;;13.48;3.65;;;;;;;;;;7398587;19;20014;-77
2022/05/18 05:43:58;;;;;;;3.05;2.42;;;;;;;;;;7400135;19;20021;-77
2022/05/18 05:46:27;;;;;;;3.92;3.10;;;;;;;;;;7397660;19;20051;-77
2022/05/18 05:48:54;;;;;;;4.55;2.83;;;;;;;;;;7395931;19;20007;-77
2022/05/18 05:51:19;;;;;;;5.93;2.85;;;;;;;;;;7391045;19;20014;-77
2022/05/18 05:53:45;;;;;;;9.10;4.03;;;;;;;;;;7394456;19;20006;-76
2022/05/18 05:56:13;;;;;;;4.25;3.17;;;;;;;;;;7394823;19;20011;-77
2022/05/18 05:58:39;;;;;;;6.45;4.40;;;;;;;;;;7395373;19;20014;-76
2022/05/18 06:01:06;;;;;;;5.88;3.88;;;;;;;;;;7329302;19;20505;-77
2022/05/18 06:03:33;;;;;;;6.00;3.83;;;;;;;;;;7398649;19;20006;-77
2022/05/18 06:05:59;;;;;;;7.13;4.30;;;;;;;;;;7398398;19;20002;-77
2022/05/18 06:08:25;;;;;;;9.77;4.82;;;;;;;;;;7397983;19;20011;-76
2022/05/18 06:10:50;;;;;;;8.30;4.13;;;;;;;;;;7392854;19;20115;-77
2022/05/18 06:13:15;;;;;;;10.32;4.05;;;;;;;;;;7393549;19;20016;-77
2022/05/18 06:15:41;;;;;;;5.15;4.20;;;;;;;;;;7394940;19;20420;-76
2022/05/18 06:18:07;;;;;;;6.95;4.57;;;;;;;;;;7393410;19;20003;-80
2022/05/18 06:20:33;;;;;;;6.00;3.85;;;;;;;;;;7391769;19;20043;-76
2022/05/18 06:22:59;;;;;;;7.20;4.40;;;;;;;;;;7387964;19;20009;-78
2022/05/18 06:25:25;;;;;;;7.03;4.55;;;;;;;;;;7398221;19;20374;-77
2022/05/18 06:27:50;;;;;;;7.32;3.67;;;;;;;;;;7394370;19;20102;-77
2022/05/18 06:30:16;;;;;;;4.32;3.65;;;;;;;;;;7391320;19;20442;-77
2022/05/18 06:32:42;;;;;;;4.93;3.72;;;;;;;;;;7386743;19;20062;-77
2022/05/18 06:35:07;;;;;;;6.53;4.72;;;;;;;;;;7390431;19;20019;-77
2022/05/18 06:37:33;;;;;;;8.07;4.00;;;;;;;;;;7384929;19;20075;-77
2022/05/18 06:39:58;;;;;;;7.10;4.53;;;;;;;;;;7389833;19;20027;-77
2022/05/18 06:42:24;;;;;;;7.80;4.55;;;;;;;;;;7388825;19;20110;-77
2022/05/18 06:44:50;;;;;;;8.02;4.10;;;;;;;;;;7390943;19;20061;-77
2022/05/18 06:47:16;;;;;;;7.63;4.45;;;;;;;;;;7386806;19;20017;-78
2022/05/18 06:49:42;;;;;;;4.97;3.80;;;;;;;;;;7390433;19;20136;-77
2022/05/18 06:52:09;;;;;;;9.13;4.13;;;;;;;;;;7385602;19;20140;-77
2022/05/18 06:54:35;;;;;;;7.32;3.47;;;;;;;;;;7390093;19;20014;-77
2022/05/18 06:57:00;;;;;;;5.22;4.07;;;;;;;;;;7389595;19;20010;-77
2022/05/18 06:59:26;;;;;;;9.88;4.30;;;;;;;;;;7389768;19;20355;-77
2022/05/18 07:01:51;;;;;;;4.93;3.83;;;;;;;;;;7389294;19;20006;-78
2022/05/18 07:04:16;;;;;;;8.90;3.80;;;;;;;;;;7391335;19;20010;-77
2022/05/18 07:06:43;;;;;;;7.15;4.35;;;;;;;;;;7387919;19;20618;-77
2022/05/18 07:09:18;;;;;;;6.88;3.85;;;;;;;;;;7387278;19;20018;-77
2022/05/18 07:11:46;;;;;;;8.20;3.65;;;;;;;;;;7385597;19;20006;-77
2022/05/18 07:14:12;;;;;;;5.13;3.78;;;;;;;;;;7387940;19;20336;-77
2022/05/18 07:16:37;;;;;;;5.47;3.97;;;;;;;;;;7389085;19;20131;-77
2022/05/18 07:19:03;;;;;;;10.85;4.40;;;;;;;;;;7391798;19;20135;-77
2022/05/18 07:21:29;;;;;;;4.93;3.95;;;;;;;;;;7385289;19;20014;-77
2022/05/18 07:23:54;;;;;;;12.50;4.57;;;;;;;;;;7389065;19;20006;-77
2022/05/18 07:26:21;;;;;;;6.65;4.07;;;;;;;;;;7391785;19;20012;-77
2022/05/18 07:28:47;;;;;;;8.82;4.50;;;;;;;;;;7388452;19;20399;-77
2022/05/18 07:31:13;;;;;;;6.00;4.28;;;;;;;;;;7387331;19;20047;-78
2022/05/18 07:33:38;;;;;;;7.95;4.65;;;;;;;;;;7390742;19;20019;-78
2022/05/18 07:36:05;;;;;;;5.75;4.25;;;;;;;;;;7387879;19;20002;-77
2022/05/18 07:38:32;;;;;;;5.72;4.70;;;;;;;;;;7390256;19;20010;-77
2022/05/18 07:40:57;;;;;;;7.55;5.07;;;;;;;;;;7385946;19;20006;-77
2022/05/18 07:43:23;;;;;;;8.10;4.65;;;;;;;;;;7388662;19;20374;-78
2022/05/18 07:45:50;;;;;;;5.15;4.55;;;;;;;;;;7388139;19;20115;-77
2022/05/18 07:48:17;;;;;;;5.55;4.32;;;;;;;;;;7385813;19;20015;-77
2022/05/18 07:50:42;;;;;;;7.80;4.70;;;;;;;;;;7387156;19;20085;-77
2022/05/18 07:53:08;;;;;;;7.70;4.30;;;;;;;;;;7390576;19;20010;-77
2022/05/18 07:55:34;;;;;;;6.75;4.70;;;;;;;;;;7388095;19;20006;-77
2022/05/18 07:58:07;;;;;;;5.70;4.28;;;;;;;;;;7390167;19;20014;-77
2022/05/18 08:00:32;;;;;;;5.82;4.32;;;;;;;;;;7387931;19;20443;-78
2022/05/18 08:03:00;;;;;;;7.72;4.50;;;;;;;;;;7385851;19;20031;-77
2022/05/18 08:05:28;;;;;;;5.85;4.68;;;;;;;;;;7386816;19;20395;-77
2022/05/18 08:07:53;;;;;;;8.93;3.95;;;;;;;;;;7389700;19;20010;-77
2022/05/18 08:15:49;;;;;;;5.82;4.22;;;;;;;;;;7387972;19;20017;-77
2022/05/18 08:18:15;;;;;;;5.95;4.47;;;;;;;;;;7384281;19;20097;-78
2022/05/18 08:20:42;;;;;;;9.25;4.82;;;;;;;;;;7394935;19;20014;-77
2022/05/18 08:23:08;;;;;;;7.85;4.38;;;;;;;;;;7385479;19;20059;-77
2022/05/18 08:25:33;;;;;;;5.78;4.50;;;;;;;;;;7388402;19;20477;-77
2022/05/18 08:27:59;;;;;;;5.55;4.18;;;;;;;;;;7385346;19;20014;-77
2022/05/18 08:30:24;;;;;;;5.72;4.00;;;;;;;;;;7390581;19;20010;-78
2022/05/18 08:32:53;;;;;;;8.63;4.13;;;;;;;;;;7390516;19;20046;-77
2022/05/18 08:35:18;;;;;;;7.45;4.65;;;;;;;;;;7387250;19;20017;-77
2022/05/18 08:37:46;;;;;;;6.53;4.55;;;;;;;;;;7387952;19;20062;-78
2022/05/18 08:40:40;;;;;;;6.68;4.00;;;;;;;;;;7388649;19;20022;-78
2022/05/18 08:43:08;;;;;;;5.10;3.60;;;;;;;;;;7382786;19;20010;-78
2022/05/18 08:45:43;;;;;;;6.35;3.28;;;;;;;;;;7389989;19;20007;-77
2022/05/18 08:48:26;;;;;;;5.13;3.90;;;;;;;;;;7394431;19;20006;-77
2022/05/18 08:50:59;;;;;;;6.45;3.53;;;;;;;;;;7392070;19;20018;-77
2022/05/18 08:53:46;;;;;;;5.90;4.25;;;;;;;;;;7392086;19;20019;-77
2022/05/18 08:56:19;;;;;;;4.72;3.72;;;;;;;;;;7394714;19;20490;-77
2022/05/18 08:58:48;;;;;;;7.53;4.20;;;;;;;;;;7394687;19;20336;-77
2022/05/18 09:01:23;;;;;;;5.63;4.28;;;;;;;;;;7394096;19;20018;-77
2022/05/18 09:03:54;;;;;;;3.72;3.38;;;;;;;;;;7393120;19;20010;-77
2022/05/18 09:06:31;;;;;;;4.65;3.80;;;;;;;;;;7391576;19;20010;-77
2022/05/18 09:11:52;;;;;;;7.80;4.07;;;;;;;;;;7389968;19;20031;-77
2022/05/18 09:14:21;;;;;;;6.57;4.35;;;;;;;;;;7392160;19;20110;-77
2022/05/18 09:17:11;;;;;;;6.55;3.17;;;;;;;;;;7387054;19;20010;-77
2022/05/18 09:20:00;;;;;;;5.00;3.25;;;;;;;;;;7389674;19;20388;-77
2022/05/18 09:22:28;;;;;;;4.82;3.15;;;;;;;;;;7393641;19;20541;-77
2022/05/18 09:25:18;;;;;;;4.07;3.47;;;;;;;;;;7387065;19;20036;-77
2022/05/18 09:28:08;;;;;;;6.47;2.80;;;;;;;;;;7388339;19;20419;-77
2022/05/18 09:30:59;;;;;;;4.97;2.67;;;;;;;;;;7390123;19;20007;-77
2022/05/18 09:33:30;;;;;;;4.75;2.63;;;;;;;;;;7393976;19;20005;-77
2022/05/18 09:36:45;;;;;;;4.28;3.00;;;;;;;;;;7387925;19;20478;-77
2022/05/18 09:39:17;;;;;;;6.00;3.55;;;;;;;;;;7386608;19;20489;-76
2022/05/18 09:42:07;;;;;;;5.25;3.20;;;;;;;;;;7388533;19;20029;-78
2022/05/18 09:44:58;;;;;;;4.47;2.95;;;;;;;;;;7391238;19;20015;-77
2022/05/18 09:47:27;;;;;;;5.88;2.70;;;;;;;;;;7392486;19;20014;-77
2022/05/18 09:49:56;;;;;;;4.72;2.40;;;;;;;;;;7388604;19;20048;-78
2022/05/18 09:52:26;;;;;;;4.90;2.38;;;;;;;;;;7388783;19;20749;-78
2022/05/18 09:55:01;;;;;;;3.85;2.53;;;;;;;;;;7391251;19;20091;-78
2022/05/18 09:57:35;;;;;;;;;;;;;;;;;;7390790;19;20007;-77
2022/05/18 10:00:10;;;;;;;2.95;1.98;;;;;;;;;;7394262;19;19919;-78
2022/05/18 10:08:45;;;;;;;2.78;2.10;;;;;;;;;;7391841;19;20400;-78
2022/05/18 10:11:23;;;;;;;4.18;1.33;;;;;;;;;;7388849;19;20026;-78
2022/05/18 10:14:14;;;;;;;1.30;1.13;;;;;;;;;;7392833;19;20007;-78
2022/05/18 10:17:05;;;;;;;2.13;1.48;;;;;;;;;;7391396;19;20513;-78
2022/05/18 10:19:36;;;;;;;3.35;1.80;;;;;;;;;;7392987;19;20003;-77
2022/05/18 10:22:04;;;;;;;2.47;1.90;;;;;;;;;;7395377;19;20070;-78
2022/05/18 10:24:54;;;;;;;2.95;1.73;;;;;;;;;;7394110;19;20053;-78
2022/05/18 10:27:28;;;;;;;2.28;1.98;;;;;;;;;;7393008;19;20011;-77
2022/05/18 10:30:27;;;;;;;5.10;2.13;;;;;;;;;;7389934;19;20010;-77
2022/05/18 10:32:57;;;;;;;4.05;1.98;;;;;;;;;;7394630;19;20006;-77
2022/05/18 10:35:46;;;;;;;4.38;1.85;;;;;;;;;;7394444;19;20461;-77
2022/05/18 10:38:21;;;;;;;2.83;1.40;;;;;;;;;;7394473;19;20030;-77
2022/05/18 10:40:46;;;;;;;;;;;;;;;;;;7393388;19;20470;-77
2022/05/18 10:43:38;;;;;;;1.70;1.25;;;;;;;;;;7395784;19;19930;-78
2022/05/18 10:46:16;;;;;;;2.88;1.67;;;;;;;;;;7394717;19;20346;-78
2022/05/18 10:48:56;;;;;;;3.17;1.65;;;;;;;;;;7382911;19;20031;-79
2022/05/18 10:51:37;;;;;;;3.33;1.63;;;;;;;;;;7392742;19;20038;-78
2022/05/18 10:54:31;;;;;;;2.42;1.25;;;;;;;;;;7392466;19;20014;-78
2022/05/18 10:57:13;;;;;;;4.70;1.20;;;;;;;;;;7395186;19;20014;-78
2022/05/18 11:00:17;;;;;;;3.45;1.42;;;;;;;;;;7392474;19;20011;-77
2022/05/18 11:03:06;;;;;;;2.65;1.00;;;;;;;;;;7390433;19;20010;-78
2022/05/18 11:05:38;;;;;;;1.27;0.95;;;;;;;;;;7391601;19;20357;-78
2022/05/18 11:08:15;;;;;;;3.50;1.20;;;;;;;;;;7390221;19;20534;-78
2022/05/18 11:10:48;;;;;;;2.05;1.17;;;;;;;;;;7391173;19;20002;-78
2022/05/18 11:13:29;;;;;;;2.05;1.27;;;;;;;;;;7389057;19;19998;-78
2022/05/18 11:16:05;;;;;;;2.95;1.10;;;;;;;;;;7392696;19;20026;-78
2022/05/18 11:18:50;;;;;;;3.28;1.20;;;;;;;;;;7388252;19;19999;-78
2022/05/18 11:22:06;;;;;;;2.35;1.10;;;;;;;;;;7385922;19;20404;-77
2022/05/18 11:25:24;;;;;;;;;;;;;;;;;;;;;
2022/05/18 11:28:45;;;;;;;;;;;;;;;;;;;;;
2022/05/18 11:31:40;;;;;;;1.70;1.10;;;;;;;;;;7383497;19;20006;-79
2022/05/18 11:34:27;;;;;;;;;;;;;;;;;;7390312;19;20048;-78
2022/05/18 11:37:04;;;;;;;1.23;0.80;;;;;;;;;;7391561;19;19922;-78
2022/05/18 11:40:09;;;;;;;0.80;0.80;;;;;;;;;;7390530;19;20026;-79
2022/05/18 11:43:25;;;;;;;1.15;0.93;;;;;;;;;;7388524;19;20010;-80
2022/05/18 11:45:54;;;;;;;1.77;1.20;;;;;;;;;;7388592;19;20010;-79
2022/05/18 11:49:09;;;;;;;1.92;0.80;;;;;;;;;;7387458;19;20118;-78
2022/05/18 11:51:40;;;;;;;6.83;1.30;;;;;;;;;;7390909;19;20006;-79
2022/05/18 11:54:26;;;;;;;0.70;0.70;;;;;;;;;;7387078;19;20267;-79
2022/05/18 11:57:40;;;;;;;0.88;0.88;;;;;;;;;;7396704;19;20074;-83
2022/05/18 12:00:54;;;;;;;1.17;0.88;;;;;;;;;;7390221;19;20010;-79
2022/05/18 12:03:36;;;;;;;1.00;0.82;;;;;;;;;;7388068;19;20018;-81
2022/05/18 12:06:39;;;;;;;3.97;1.20;;;;;;;;;;7388489;19;20465;-81
2022/05/18 12:09:16;;;;;;;3.78;1.27;;;;;;;;;;7379188;19;20006;-78
2022/05/18 12:11:52;;;;;;;1.38;0.90;;;;;;;;;;7384638;19;20018;-79
2022/05/18 12:14:57;;;;;;;2.85;1.00;;;;;;;;;;7385623;19;20013;-78
2022/05/18 12:17:34;;;;;;;1.23;0.93;;;;;;;;;;7386308;19;20014;-78
2022/05/18 12:20:09;;;;;;;1.55;1.05;;;;;;;;;;7379963;19;20035;-79
2022/05/18 12:22:46;;;;;;;3.22;1.10;;;;;;;;;;7385635;19;20044;-79
2022/05/18 12:25:18;;;;;;;6.03;1.20;;;;;;;;;;7393393;19;20006;-78
2022/05/18 12:27:44;;;;;;;1.42;1.17;;;;;;;;;;7387493;19;20010;-78
2022/05/18 12:30:13;;;;;;;1.38;1.10;;;;;;;;;;7382927;19;20037;-78
2022/05/18 12:32:40;;;;;;;1.67;1.20;;;;;;;;;;7383414;19;20006;-79
2022/05/18 12:35:12;;;;;;;1.30;1.20;;;;;;;;;;7388477;19;20007;-77
2022/05/18 12:37:50;;;;;;;2.45;1.00;;;;;;;;;;7390559;19;20007;-77
2022/05/18 12:40:15;;;;;;;2.63;1.10;;;;;;;;;;7384353;19;20027;-78
2022/05/18 12:42:46;;;;;;;0.90;0.90;;;;;;;;;;7381451;19;20458;-78
2022/05/18 12:45:30;;;;;;;1.67;1.23;;;;;;;;;;7377228;19;20011;-78
2022/05/18 12:48:30;;;;;;;2.35;1.08;;;;;;;;;;7387049;19;20010;-78
2022/05/18 12:51:08;;;;;;;1.80;0.98;;;;;;;;;;7380460;19;20135;-78
2022/05/18 12:54:10;;;;;;;3.00;1.02;;;;;;;;;;7393165;19;20015;-78
2022/05/18 12:56:42;;;;;;;1.30;1.10;;;;;;;;;;7381498;19;20022;-79
2022/05/18 12:59:07;;;;;;;1.65;1.15;;;;;;;;;;7386330;19;20137;-79
2022/05/18 13:01:38;;;;;;;1.10;0.93;;;;;;;;;;7379964;19;20006;-77
2022/05/18 13:04:09;;;;;;;1.30;1.15;;;;;;;;;;7389058;19;20043;-78
2022/05/18 13:06:47;;;;;;;0.90;0.90;;;;;;;;;;7383889;19;20022;-78
2022/05/18 13:09:25;;;;;;;2.53;1.10;;;;;;;;;;7389764;19;20874;-78
2022/05/18 13:12:12;;;;;;;3.60;0.90;;;;;;;;;;7381948;19;20015;-80
2022/05/18 13:15:03;;;;;;;1.65;1.00;;;;;;;;;;7385944;19;20011;-78
2022/05/18 13:17:53;;;;;;;2.47;1.20;;;;;;;;;;7382372;19;20006;-78
2022/05/18 13:20:22;;;;;;;3.08;1.20;;;;;;;;;;7386787;19;20375;-78
2022/05/18 13:23:01;;;;;;;1.02;0.85;;;;;;;;;;7384189;19;20014;-78
2022/05/18 13:25:33;;;;;;;2.30;1.08;;;;;;;;;;7375779;19;20027;-78
2022/05/18 13:28:00;;;;;;;2.17;1.20;;;;;;;;;;7378334;19;19994;-78
2022/05/18 13:30:34;;;;;;;2.63;1.10;;;;;;;;;;7370622;19;20376;-76
2022/05/18 13:33:00;;;;;;;1.77;1.10;;;;;;;;;;7385969;19;20070;-79
2022/05/18 13:35:28;;;;;;;1.70;1.00;;;;;;;;;;7390374;19;20017;-78
2022/05/18 13:38:26;;;;;;;1.63;0.95;;;;;;;;;;7382362;19;20034;-76
2022/05/18 13:41:05;;;;;;;0.90;0.80;;;;;;;;;;7378010;19;20038;-77
2022/05/18 13:43:34;;;;;;;4.05;1.05;;;;;;;;;;7384110;19;20011;-78
2022/05/18 13:46:09;;;;;;;1.67;0.93;;;;;;;;;;7387146;19;20038;-76
2022/05/18 13:48:34;;;;;;;1.50;1.00;;;;;;;;;;7387559;19;20030;-79
2022/05/18 13:51:07;;;;;;;3.10;1.40;;;;;;;;;;7387967;19;20198;-78
2022/05/18 13:53:39;;;;;;;1.20;1.00;;;;;;;;;;7386357;19;20029;-75
2022/05/18 13:56:16;;;;;;;1.08;1.00;;;;;;;;;;7385623;19;20476;-79
2022/05/18 13:58:44;;;;;;;2.75;1.00;;;;;;;;;;7381619;19;20565;-76
2022/05/18 14:01:19;;;;;;;1.33;0.93;;;;;;;;;;7390769;19;20011;-79
2022/05/18 14:03:45;;;;;;;;;;;;;;;;;;7396729;19;20039;-77
2022/05/18 14:06:15;;;;;;;1.17;1.00;;;;;;;;;;7392017;19;20326;-76
2022/05/18 14:08:47;;;;;;;1.55;0.98;;;;;;;;;;7393600;19;20015;-78
2022/05/18 14:11:15;;;;;;;1.10;1.00;;;;;;;;;;7388437;19;20028;-77
2022/05/18 14:13:42;;;;;;;1.42;0.95;;;;;;;;;;7391356;19;20018;-77
2022/05/18 14:16:15;;;;;;;1.60;0.90;;;;;;;;;;7384692;19;20017;-77
2022/05/18 14:18:47;;;;;;;1.70;0.95;;;;;;;;;;7387485;19;20126;-78
2022/05/18 14:21:14;;;;;;;3.20;1.00;;;;;;;;;;7392338;19;20019;-77
2022/05/18 14:23:52;;;;;;;1.42;1.10;;;;;;;;;;7390820;19;20011;-77
2022/05/18 14:26:27;;;;;;;1.50;0.90;;;;;;;;;;7394766;19;20003;-78
2022/05/18 14:28:55;;;;;;;0.85;0.70;;;;;;;;;;7392920;19;20010;-78
2022/05/18 14:31:24;;;;;;;2.17;0.90;;;;;;;;;;7391434;19;20029;-76
2022/05/18 14:33:57;;;;;;;2.45;0.90;;;;;;;;;;7395038;19;20022;-78
2022/05/18 14:36:26;;;;;;;1.38;0.73;;;;;;;;;;7383620;19;20017;-76
2022/05/18 14:38:55;;;;;;;1.98;1.00;;;;;;;;;;7381850;19;20026;-76
2022/05/18 14:41:22;;;;;;;1.27;0.60;;;;;;;;;;7390389;19;20041;-76
2022/05/18 14:43:49;;;;;;;0.75;0.75;;;;;;;;;;7379066;19;20015;-76
2022/05/18 14:46:27;;;;;;;1.85;1.10;;;;;;;;;;7384566;19;20419;-79
2022/05/18 14:49:12;;;;;;;6.32;0.80;;;;;;;;;;7386069;19;20063;-77
2022/05/18 14:51:43;;;;;;;;;;;;;;;;;;7380375;19;20017;-77
2022/05/18 14:54:24;;;;;;;0.85;0.70;;;;;;;;;;7384148;19;19918;-76
2022/05/18 14:57:02;;;;;;;2.35;0.57;;;;;;;;;;7385369;19;20466;-76
2022/05/18 14:59:28;;;;;;;1.38;0.80;;;;;;;;;;7394192;19;20010;-76
2022/05/18 15:02:04;;;;;;;2.20;1.05;;;;;;;;;;7389620;19;20418;-76
2022/05/18 15:05:10;;;;;;;0.80;0.80;;;;;;;;;;7380123;19;20021;-76
2022/05/18 15:07:43;;;;;;;1.45;0.80;;;;;;;;;;7389263;19;20010;-77
2022/05/18 15:10:23;;;;;;;1.70;0.85;;;;;;;;;;7381821;19;20014;-77
2022/05/18 15:12:54;;;;;;;1.35;0.82;;;;;;;;;;7378412;19;20517;-76
2022/05/18 15:15:25;;;;;;;1.25;0.95;;;;;;;;;;7386564;19;20006;-78
2022/05/18 15:17:56;;;;;;;1.27;0.93;;;;;;;;;;7387904;19;20018;-76
2022/05/18 15:20:27;;;;;;;1.27;0.73;;;;;;;;;;7382377;19;20462;-77
2022/05/18 15:22:57;;;;;;;1.20;0.82;;;;;;;;;;7387339;19;20007;-77
2022/05/18 15:25:54;;;;;;;1.45;0.90;;;;;;;;;;7395568;19;20074;-77
2022/05/18 15:29:00;;;;;;;4.35;1.10;;;;;;;;;;7399242;19;20022;-77
2022/05/18 15:31:50;;;;;;;2.22;1.02;;;;;;;;;;7401497;19;20023;-77
2022/05/18 15:42:05;;;;;;;1.92;1.55;;;;;;;;;;7395082;19;20050;-77
2022/05/18 15:44:50;;;;;;;7.53;4.85;;;;;;;;;;7394401;19;19999;-77
2022/05/18 15:47:42;;;;;;;5.53;1.80;;;;;;;;;;7394085;19;20018;-77
2022/05/18 15:50:13;;;;;;;2.72;1.15;;;;;;;;;;7392502;19;20536;-79
2022/05/18 15:52:43;;;;;;;1.50;1.30;;;;;;;;;;7390053;19;20021;-77
2022/05/18 15:55:13;;;;;;;8.30;5.18;;;;;;;;;;7387981;19;20030;-77
2022/05/18 15:57:45;;;;;;;16.95;10.25;;;;;;;;;;7388276;19;20085;-77
2022/05/18 16:00:21;;;;;;;22.77;15.95;;;;;;;;;;7391583;19;20026;-78
2022/05/18 16:02:48;;;;;;;28.92;17.58;;;;;;;;;;7394437;19;20330;-76